createdAt,value
2023-09-07T00:00:53.579Z,4.72
2023-09-07T00:03:55.198Z,4.50
2023-09-07T00:06:56.947Z,4.32
2023-09-07T00:09:58.612Z,4.70
2023-09-07T00:13:00.262Z,4.78
2023-09-07T00:16:03.947Z,4.57
2023-09-07T00:19:06.216Z,4.07
2023-09-07T00:22:07.930Z,4.50
2023-09-07T00:25:10.323Z,4.82
2023-09-07T00:28:12.035Z,4.75
2023-09-07T00:31:13.735Z,4.70
2023-09-07T00:34:15.461Z,4.47
2023-09-07T00:37:17.182Z,5.03
2023-09-07T00:40:18.932Z,4.85
2023-09-07T00:43:20.665Z,5.00
2023-09-07T00:46:23.055Z,4.22
2023-09-07T00:49:25.898Z,4.70
2023-09-07T00:52:28.509Z,4.60
2023-09-07T00:55:34.023Z,4.20
2023-09-07T00:58:37.357Z,4.82
2023-09-07T01:04:43.282Z,3.90
2023-09-07T01:07:48.831Z,4.07
2023-09-07T01:10:50.684Z,4.30
2023-09-07T01:13:54.970Z,4.07
2023-09-07T01:16:57.037Z,4.25
2023-09-07T01:20:06.661Z,4.27
2023-09-07T01:23:08.725Z,4.40
2023-09-07T01:26:11.237Z,4.40
2023-09-07T01:29:13.051Z,4.82
2023-09-07T01:32:15.553Z,4.15
2023-09-07T01:35:18.042Z,4.40
2023-09-07T01:38:19.859Z,4.37
2023-09-07T01:41:21.693Z,4.28
2023-09-07T01:44:23.501Z,4.35
2023-09-07T01:47:25.304Z,4.43
2023-09-07T01:50:27.887Z,4.40
2023-09-07T01:53:29.741Z,4.35
2023-09-07T01:56:31.450Z,4.50
2023-09-07T01:59:33.217Z,4.45
2023-09-07T02:02:34.994Z,4.13
2023-09-07T02:05:36.714Z,3.75
2023-09-07T02:08:38.371Z,3.83
2023-09-07T02:11:41.164Z,4.07
2023-09-07T02:14:42.840Z,3.95
2023-09-07T02:17:46.126Z,4.20
2023-09-07T02:20:51.049Z,4.50
2023-09-07T02:23:52.685Z,4.28
2023-09-07T02:26:55.624Z,4.30
2023-09-07T02:29:57.528Z,4.30
2023-09-07T02:32:59.260Z,4.22
2023-09-07T02:36:02.534Z,4.70
2023-09-07T02:39:04.864Z,3.80
2023-09-07T02:42:08.378Z,4.13
2023-09-07T02:45:13.379Z,4.60
2023-09-07T02:48:16.084Z,4.38
2023-09-07T02:51:18.685Z,4.15
2023-09-07T02:54:20.989Z,4.55
2023-09-07T02:57:22.681Z,4.70
2023-09-07T03:00:24.659Z,4.32
2023-09-07T03:03:26.677Z,4.95
2023-09-07T03:06:29.178Z,4.78
2023-09-07T03:09:30.857Z,4.78
2023-09-07T03:12:33.027Z,4.18
2023-09-07T03:15:35.037Z,4.05
2023-09-07T03:18:38.387Z,3.72
2023-09-07T03:21:40.282Z,3.47
2023-09-07T03:24:42.139Z,3.90
2023-09-07T03:27:44.056Z,4.15
2023-09-07T03:30:47.951Z,4.15
2023-09-07T03:33:50.805Z,3.92
2023-09-07T03:36:52.543Z,4.25
2023-09-07T03:39:54.265Z,3.85
2023-09-07T03:42:56.140Z,4.15
2023-09-07T03:45:59.205Z,4.30
2023-09-07T03:49:01.301Z,3.92
2023-09-07T03:52:03.084Z,4.13
2023-09-07T03:55:05.310Z,4.10
2023-09-07T03:58:07.128Z,3.90
2023-09-07T04:01:08.907Z,4.97
2023-09-07T04:04:10.716Z,5.60
2023-09-07T04:07:12.403Z,4.78
2023-09-07T04:10:14.131Z,5.13
2023-09-07T04:13:16.068Z,4.70
2023-09-07T04:16:17.745Z,4.63
2023-09-07T04:19:19.505Z,4.65
2023-09-07T04:22:21.409Z,4.95
2023-09-07T04:25:23.101Z,4.47
2023-09-07T04:28:25.363Z,4.70
2023-09-07T04:31:28.629Z,4.30
2023-09-07T04:34:30.534Z,4.72
2023-09-07T04:37:32.331Z,4.22
2023-09-07T04:40:34.237Z,4.85
2023-09-07T04:43:36.583Z,4.70
2023-09-07T04:46:38.319Z,4.17
2023-09-07T04:49:40.531Z,4.40
2023-09-07T04:52:42.307Z,5.13
2023-09-07T04:55:45.436Z,5.03
2023-09-07T04:58:47.160Z,4.90
2023-09-07T05:01:49.009Z,4.57
2023-09-07T05:04:51.421Z,5.40
2023-09-07T05:07:53.168Z,5.35
2023-09-07T05:11:05.118Z,4.97
2023-09-07T05:14:06.902Z,5.00
2023-09-07T05:17:08.724Z,4.60
2023-09-07T05:20:11.471Z,5.07
2023-09-07T05:23:18.783Z,5.20
2023-09-07T05:26:25.480Z,5.07
2023-09-07T05:29:28.339Z,4.30
2023-09-07T05:32:30.012Z,4.30
2023-09-07T05:35:33.506Z,4.40
2023-09-07T05:38:35.869Z,4.47
2023-09-07T05:41:37.853Z,4.28
2023-09-07T05:44:39.863Z,4.03
2023-09-07T05:47:41.601Z,4.90
2023-09-07T05:50:44.045Z,5.15
2023-09-07T05:53:46.108Z,4.50
2023-09-07T05:56:47.822Z,4.78
2023-09-07T05:59:49.558Z,5.35
2023-09-07T06:02:52.087Z,5.32
2023-09-07T06:05:54.092Z,5.50
2023-09-07T06:08:55.888Z,5.05
2023-09-07T06:11:57.813Z,5.45
2023-09-07T06:15:01.738Z,5.40
2023-09-07T06:18:04.831Z,5.38
2023-09-07T06:21:07.714Z,5.88
2023-09-07T06:24:09.463Z,5.80
2023-09-07T06:27:11.144Z,5.55
2023-09-07T06:30:13.089Z,6.25
2023-09-07T06:33:15.966Z,5.80
2023-09-07T06:36:22.080Z,5.97
2023-09-07T06:39:28.572Z,5.97
2023-09-07T06:42:32.104Z,5.38
2023-09-07T06:45:39.982Z,4.72
2023-09-07T06:48:41.792Z,5.38
2023-09-07T06:51:43.556Z,5.25
2023-09-07T06:54:45.431Z,5.30
2023-09-07T06:57:47.580Z,5.13
2023-09-07T07:00:49.952Z,4.95
2023-09-07T07:03:52.031Z,5.63
2023-09-07T07:06:55.022Z,5.00
2023-09-07T07:09:56.914Z,5.65
2023-09-07T07:12:58.753Z,5.40
2023-09-07T07:16:09.896Z,5.90
2023-09-07T07:19:12.424Z,5.03
2023-09-07T07:22:16.909Z,4.85
2023-09-07T07:25:20.261Z,5.50
2023-09-07T07:28:22.382Z,5.72
2023-09-07T07:31:24.210Z,5.20
2023-09-07T07:34:26.028Z,4.88
2023-09-07T07:37:28.143Z,5.20
2023-09-07T07:40:30.026Z,5.22
2023-09-07T07:43:34.955Z,5.10
2023-09-07T07:46:37.285Z,5.15
2023-09-07T07:49:39.203Z,5.40
2023-09-07T07:52:41.750Z,5.00
2023-09-07T07:58:49.758Z,5.20
2023-09-07T08:01:51.751Z,5.68
2023-09-07T08:04:53.850Z,4.57
2023-09-07T08:07:57.457Z,5.10
2023-09-07T08:11:01.254Z,4.95
2023-09-07T08:14:03.764Z,4.88
2023-09-07T08:17:06.174Z,5.03
2023-09-07T08:20:12.322Z,4.93
2023-09-07T08:23:14.322Z,4.45
2023-09-07T08:26:16.264Z,4.82
2023-09-07T08:29:21.632Z,4.88
2023-09-07T08:32:24.004Z,4.45
2023-09-07T08:35:28.705Z,4.68
2023-09-07T08:38:32.081Z,4.88
2023-09-07T08:42:01.301Z,5.45
2023-09-07T08:45:08.958Z,4.90
2023-09-07T08:48:14.384Z,4.70
2023-09-07T08:51:17.116Z,4.60
2023-09-07T08:54:19.478Z,4.82
2023-09-07T08:57:22.627Z,4.40
2023-09-07T09:00:24.655Z,4.13
2023-09-07T09:03:26.519Z,4.30
2023-09-07T09:06:28.279Z,4.22
2023-09-07T09:09:30.000Z,4.60
2023-09-07T09:12:32.329Z,4.25
2023-09-07T09:15:34.138Z,4.32
2023-09-07T09:18:36.422Z,4.18
2023-09-07T09:21:38.482Z,4.53
2023-09-07T09:24:40.997Z,3.83
2023-09-07T09:27:42.864Z,4.00
2023-09-07T09:30:44.650Z,4.10
2023-09-07T09:33:52.733Z,4.28
2023-09-07T09:36:55.388Z,4.22
2023-09-07T09:39:58.907Z,4.10
2023-09-07T09:43:01.038Z,3.78
2023-09-07T09:46:06.122Z,3.97
2023-09-07T09:49:12.342Z,4.13
2023-09-07T09:52:14.970Z,3.85
2023-09-07T09:55:16.807Z,4.40
2023-09-07T09:58:18.489Z,3.80
2023-09-07T10:01:21.064Z,4.15
2023-09-07T10:04:24.203Z,4.13
2023-09-07T10:07:41.533Z,4.38
2023-09-07T10:10:44.567Z,4.07
2023-09-07T10:13:47.629Z,4.50
2023-09-07T10:16:53.067Z,3.65
2023-09-07T10:20:08.459Z,4.05
2023-09-07T10:23:10.483Z,4.13
2023-09-07T10:26:14.409Z,4.20
2023-09-07T10:29:16.177Z,4.07
2023-09-07T10:32:20.374Z,3.60
2023-09-07T10:35:23.240Z,4.07
2023-09-07T10:38:25.409Z,3.92
2023-09-07T10:41:27.087Z,4.75
2023-09-07T10:44:29.266Z,3.90
2023-09-07T10:50:43.632Z,3.90
2023-09-07T10:53:45.292Z,4.00
2023-09-07T10:56:47.234Z,3.83
2023-09-07T10:59:48.929Z,4.05
2023-09-07T11:02:50.826Z,4.30
2023-09-07T11:05:55.743Z,4.32
2023-09-07T11:09:00.807Z,4.20
2023-09-07T11:12:06.422Z,4.45
2023-09-07T11:15:12.017Z,4.07
2023-09-07T11:18:14.520Z,3.90
2023-09-07T11:21:16.146Z,3.88
2023-09-07T11:24:18.467Z,4.30
2023-09-07T11:27:20.300Z,4.10
2023-09-07T11:30:23.095Z,3.88
2023-09-07T11:33:25.258Z,3.70
2023-09-07T11:36:27.006Z,4.00
2023-09-07T11:39:28.683Z,3.58
2023-09-07T11:42:30.383Z,3.80
2023-09-07T11:45:33.440Z,4.43
2023-09-07T11:48:35.353Z,3.50
2023-09-07T11:51:37.079Z,3.85
2023-09-07T11:54:38.785Z,3.60
2023-09-07T11:57:42.128Z,3.80
2023-09-07T12:00:44.509Z,4.05
2023-09-07T12:03:46.946Z,3.97
2023-09-07T12:06:48.917Z,4.15
2023-09-07T12:09:50.616Z,3.60
2023-09-07T12:12:52.290Z,4.38
2023-09-07T12:15:54.017Z,4.43
2023-09-07T12:18:56.410Z,4.07
2023-09-07T12:21:58.136Z,4.13
2023-09-07T12:25:13.534Z,4.45
2023-09-07T12:28:16.434Z,4.03
2023-09-07T12:31:18.198Z,4.03
2023-09-07T12:34:19.874Z,4.10
2023-09-07T12:37:24.433Z,4.03
2023-09-07T12:40:26.387Z,3.80
2023-09-07T12:43:28.034Z,4.22
2023-09-07T12:46:29.711Z,3.92
2023-09-07T12:49:31.337Z,3.90
2023-09-07T12:52:35.278Z,3.63
2023-09-07T12:55:37.270Z,3.78
2023-09-07T12:58:38.914Z,3.70
2023-09-07T13:01:40.579Z,3.33
2023-09-07T13:04:42.267Z,3.63
2023-09-07T13:07:45.239Z,3.85
2023-09-07T13:10:47.158Z,3.60
2023-09-07T13:13:48.790Z,3.88
2023-09-07T13:16:52.613Z,3.53
2023-09-07T13:19:55.921Z,3.33
2023-09-07T13:22:59.747Z,3.72
2023-09-07T13:26:03.619Z,3.72
2023-09-07T13:29:08.285Z,3.63
2023-09-07T13:32:13.594Z,3.55
2023-09-07T13:35:16.061Z,3.95
2023-09-07T13:38:20.366Z,3.53
2023-09-07T13:41:22.417Z,3.45
2023-09-07T13:47:25.761Z,3.60
2023-09-07T13:50:27.482Z,3.80
2023-09-07T13:53:29.453Z,3.47
2023-09-07T13:56:31.115Z,3.70
2023-09-07T13:59:35.495Z,3.42
2023-09-07T14:02:37.405Z,3.50
2023-09-07T14:08:40.627Z,3.70
2023-09-07T14:11:42.206Z,3.70
2023-09-07T14:14:44.110Z,3.70
2023-09-07T14:17:45.890Z,3.60
2023-09-07T14:20:47.561Z,3.75
2023-09-07T14:23:49.223Z,3.25
2023-09-07T14:26:51.154Z,3.67
2023-09-07T14:32:55.092Z,3.75
2023-09-07T14:35:57.377Z,4.03
2023-09-07T14:38:59.030Z,3.50
2023-09-07T14:42:02.293Z,3.92
2023-09-07T14:45:04.754Z,3.75
2023-09-07T14:48:06.958Z,3.70
2023-09-07T14:51:08.924Z,3.65
2023-09-07T14:54:10.523Z,3.30
2023-09-07T14:57:13.180Z,3.40
2023-09-07T15:00:14.993Z,3.63
2023-09-07T15:03:16.703Z,3.60
2023-09-07T15:06:18.647Z,3.25
2023-09-07T15:09:21.009Z,3.33
2023-09-07T15:12:22.731Z,3.33
2023-09-07T15:15:24.528Z,3.53
2023-09-07T15:18:26.268Z,3.70
2023-09-07T15:21:28.216Z,3.40
2023-09-07T15:24:29.851Z,3.78
2023-09-07T15:27:31.873Z,3.47
2023-09-07T15:30:33.476Z,3.65
2023-09-07T15:33:36.206Z,3.67
2023-09-07T15:36:37.990Z,3.67
2023-09-07T15:39:39.884Z,3.55
2023-09-07T15:42:41.884Z,3.50
2023-09-07T15:45:43.666Z,3.60
2023-09-07T15:48:45.484Z,4.07
2023-09-07T15:51:47.142Z,4.40
2023-09-07T15:54:48.817Z,3.60
2023-09-07T15:57:51.211Z,3.60
2023-09-07T16:00:53.200Z,3.85
2023-09-07T16:03:54.947Z,3.67
2023-09-07T16:06:56.692Z,3.53
2023-09-07T16:09:59.005Z,3.95
2023-09-07T16:13:00.647Z,3.75
2023-09-07T16:16:02.335Z,3.78
2023-09-07T16:19:04.400Z,3.80
2023-09-07T16:25:11.576Z,3.92
2023-09-07T16:28:13.219Z,3.95
2023-09-07T16:31:15.736Z,3.67
2023-09-07T16:34:17.398Z,3.97
2023-09-07T16:37:19.051Z,3.88
2023-09-07T16:40:21.588Z,3.47
2023-09-07T16:43:25.244Z,3.97
2023-09-07T16:46:26.888Z,3.42
2023-09-07T16:49:28.508Z,3.90
2023-09-07T16:52:32.676Z,3.75
2023-09-07T16:55:34.324Z,3.63
2023-09-07T16:59:05.500Z,3.47
2023-09-07T17:04:59.920Z,3.90
2023-09-07T17:08:02.540Z,3.92
2023-09-07T17:11:04.404Z,4.38
2023-09-07T17:14:06.014Z,4.07
2023-09-07T17:17:08.861Z,4.00
2023-09-07T17:20:10.916Z,5.80
2023-09-07T17:23:14.204Z,6.47
2023-09-07T17:26:15.966Z,4.80
2023-09-07T17:29:19.067Z,4.28
2023-09-07T17:32:21.140Z,4.47
2023-09-07T17:35:23.328Z,3.88
2023-09-07T17:38:25.280Z,3.90
2023-09-07T17:41:36.781Z,4.00
2023-09-07T17:44:38.474Z,4.05
2023-09-07T17:47:40.195Z,4.20
2023-09-07T17:50:41.976Z,4.00
2023-09-07T17:53:43.723Z,4.00
2023-09-07T17:56:45.499Z,3.60
2023-09-07T17:59:47.166Z,4.17
2023-09-07T18:02:49.030Z,4.20
2023-09-07T18:05:50.880Z,3.80
2023-09-07T18:08:52.679Z,4.27
2023-09-07T18:11:54.479Z,3.90
2023-09-07T18:14:56.184Z,3.90
2023-09-07T18:17:57.903Z,3.97
2023-09-07T18:21:06.318Z,4.17
2023-09-07T18:24:08.121Z,3.97
2023-09-07T18:27:09.796Z,4.27
2023-09-07T18:30:11.879Z,3.92
2023-09-07T18:33:13.636Z,3.92
2023-09-07T18:36:15.283Z,3.97
2023-09-07T18:39:16.951Z,4.25
2023-09-07T18:42:18.989Z,4.50
2023-09-07T18:45:21.129Z,4.00
2023-09-07T18:48:22.758Z,3.80
2023-09-07T18:51:24.500Z,3.92
2023-09-07T18:54:26.119Z,4.18
2023-09-07T18:57:27.905Z,4.32
2023-09-07T19:00:30.028Z,4.07
2023-09-07T19:03:31.728Z,4.30
2023-09-07T19:06:33.915Z,4.80
2023-09-07T19:09:35.565Z,4.35
2023-09-07T19:12:37.176Z,4.47
2023-09-07T19:15:41.707Z,4.50
2023-09-07T19:18:43.450Z,4.53
2023-09-07T19:21:45.079Z,4.30
2023-09-07T19:24:47.143Z,4.33
2023-09-07T19:27:48.996Z,4.50
2023-09-07T19:30:50.604Z,4.50
2023-09-07T19:33:53.843Z,4.30
2023-09-07T19:36:56.568Z,4.53
2023-09-07T19:39:58.264Z,4.50
2023-09-07T19:43:00.094Z,4.07
2023-09-07T19:46:01.787Z,4.68
2023-09-07T19:49:03.486Z,4.10
2023-09-07T19:52:05.284Z,4.22
2023-09-07T19:55:07.885Z,4.43
2023-09-07T19:58:10.116Z,4.07
2023-09-07T20:01:15.237Z,4.57
2023-09-07T20:04:17.003Z,4.43
2023-09-07T20:07:18.870Z,4.30
2023-09-07T20:10:20.818Z,3.92
2023-09-07T20:13:22.685Z,4.35
2023-09-07T20:16:24.361Z,4.90
2023-09-07T20:19:26.085Z,4.28
2023-09-07T20:22:28.832Z,4.72
2023-09-07T20:25:30.608Z,4.68
2023-09-07T20:28:33.454Z,4.60
2023-09-07T20:31:35.671Z,4.75
2023-09-07T20:34:37.395Z,4.63
2023-09-07T20:37:39.285Z,4.35
2023-09-07T20:40:40.966Z,4.43
2023-09-07T20:43:43.340Z,4.35
2023-09-07T20:46:45.378Z,5.30
2023-09-07T20:49:47.055Z,4.72
2023-09-07T20:52:48.689Z,4.72
2023-09-07T20:55:50.398Z,4.85
2023-09-07T20:58:52.093Z,4.38
2023-09-07T21:01:53.705Z,4.57
2023-09-07T21:04:55.433Z,4.05
2023-09-07T21:07:57.797Z,4.00
2023-09-07T21:10:59.443Z,4.53
2023-09-07T21:14:01.143Z,4.25
2023-09-07T21:17:02.850Z,4.55
2023-09-07T21:20:05.706Z,4.25
2023-09-07T21:23:07.374Z,4.43
2023-09-07T21:26:09.232Z,4.60
2023-09-07T21:29:10.840Z,4.90
2023-09-07T21:32:12.469Z,4.55
2023-09-07T21:35:14.193Z,4.70
2023-09-07T21:38:15.890Z,4.32
2023-09-07T21:41:17.544Z,4.78
2023-09-07T21:44:20.468Z,4.65
2023-09-07T21:50:23.800Z,4.72
2023-09-07T21:53:26.114Z,4.80
2023-09-07T21:56:27.742Z,4.40
2023-09-07T21:59:29.807Z,4.53
2023-09-07T22:02:32.695Z,5.23
2023-09-07T22:05:34.587Z,5.32
2023-09-07T22:08:36.496Z,5.43
2023-09-07T22:11:38.579Z,4.95
2023-09-07T22:14:40.363Z,4.70
2023-09-07T22:17:44.242Z,5.13
2023-09-07T22:20:46.060Z,4.60
2023-09-07T22:23:47.893Z,4.38
2023-09-07T22:26:51.961Z,4.45
2023-09-07T22:29:54.239Z,4.40
2023-09-07T22:32:56.072Z,4.17
2023-09-07T22:35:57.944Z,4.82
2023-09-07T22:38:59.698Z,5.35
2023-09-07T22:42:01.352Z,4.82
2023-09-07T22:45:03.753Z,4.95
2023-09-07T22:48:06.256Z,5.18
2023-09-07T22:51:07.979Z,5.13
2023-09-07T22:54:10.200Z,5.05
2023-09-07T22:57:11.933Z,5.10
2023-09-07T23:00:14.066Z,5.00
2023-09-07T23:03:16.271Z,5.00
2023-09-07T23:06:18.262Z,5.03
2023-09-07T23:09:21.808Z,4.60
2023-09-07T23:12:25.110Z,4.78
2023-09-07T23:15:26.934Z,5.68
2023-09-07T23:18:28.750Z,4.82
2023-09-07T23:21:30.483Z,5.30
2023-09-07T23:24:32.299Z,5.00
2023-09-07T23:27:34.537Z,5.32
2023-09-07T23:30:36.378Z,5.83
2023-09-07T23:33:38.309Z,5.57
2023-09-07T23:36:40.227Z,5.05
2023-09-07T23:39:42.057Z,5.05
2023-09-07T23:42:43.963Z,5.20
2023-09-07T23:45:45.666Z,4.78
2023-09-07T23:48:47.329Z,5.07
2023-09-07T23:51:49.041Z,4.80
2023-09-07T23:54:50.997Z,4.80
2023-09-07T23:57:53.790Z,4.97
